Time;durP1;ratioP1;P1;durP2;ratioP2;P2;SDS_P1;SDS_P2;PMS_P1;PMS_P2;Temp;Humidity;BMP_temperature;BMP_pressure;BME280_temperature;BME280_humidity;BME280_pressure;Samples;Min_cycle;Max_cycle;Signal;HPM_P1;HPM_P2
2022/10/30 00:00:58;;;;;;;0.20;0.20;;;16.80;82.90;;;;;;5037258;28;20033;-77
2022/10/30 00:03:23;;;;;;;0.10;0.10;;;16.80;82.80;;;;;;5054921;28;20071;-77
2022/10/30 00:05:50;;;;;;;0.10;0.10;;;16.60;82.90;;;;;;5054438;28;20032;-77
2022/10/30 00:08:18;;;;;;;1.33;1.23;;;16.50;83.30;;;;;;5037035;28;20048;-77
2022/10/30 00:10:45;;;;;;;0.15;0.15;;;16.50;83.50;;;;;;5020371;28;20079;-77
2022/10/30 00:13:12;;;;;;;0.20;0.20;;;16.50;83.40;;;;;;5054835;28;20047;-77
2022/10/30 00:15:38;;;;;;;0.57;0.57;;;16.40;83.30;;;;;;5036579;28;20112;-76
2022/10/30 00:18:04;;;;;;;0.10;0.10;;;16.30;83.10;;;;;;5037015;28;20116;-77
2022/10/30 00:20:30;;;;;;;2.13;0.30;;;16.40;82.70;;;;;;5054837;28;20100;-77
2022/10/30 00:22:56;;;;;;;0.13;0.13;;;16.40;82.20;;;;;;5020185;28;20064;-77
2022/10/30 00:25:21;;;;;;;0.30;0.30;;;16.50;81.90;;;;;;5054244;28;20017;-77
2022/10/30 00:27:47;;;;;;;1.75;1.13;;;16.60;81.80;;;;;;5036642;28;20029;-77
2022/10/30 00:30:14;;;;;;;0.30;0.30;;;16.60;81.60;;;;;;5054396;28;20413;-77
2022/10/30 00:32:41;;;;;;;0.25;0.10;;;16.80;80.60;;;;;;5054402;28;20017;-76
2022/10/30 00:35:08;;;;;;;0.10;0.10;;;16.90;80.90;;;;;;5054291;28;20361;-77
2022/10/30 00:37:34;;;;;;;1.85;0.50;;;16.80;81.00;;;;;;5054365;28;20033;-76
2022/10/30 00:40:00;;;;;;;10.43;5.95;;;16.80;81.60;;;;;;5036383;28;20028;-77
2022/10/30 00:42:29;;;;;;;0.20;0.20;;;16.70;81.90;;;;;;5054311;28;20017;-77
2022/10/30 00:44:55;;;;;;;3.38;1.30;;;16.60;81.40;;;;;;5035962;28;20075;-76
2022/10/30 00:47:51;;;;;;;0.32;0.32;;;16.60;82.00;;;;;;5036113;28;20057;-77
2022/10/30 00:50:24;;;;;;;0.00;0.00;;;16.50;82.20;;;;;;5054460;28;20017;-77
2022/10/30 00:53:04;;;;;;;0.10;0.10;;;16.50;81.90;;;;;;5036239;28;20052;-77
2022/10/30 00:55:46;;;;;;;0.10;0.10;;;16.60;81.50;;;;;;5018747;28;20024;-77
2022/10/30 00:58:15;;;;;;;;;;;16.60;81.40;;;;;;5054485;28;20477;-77
2022/10/30 01:00:45;;;;;;;0.10;0.10;;;16.60;81.60;;;;;;5036420;28;20379;-76
2022/10/30 01:03:11;;;;;;;0.03;0.03;;;16.70;82.00;;;;;;5036157;28;20079;-77
2022/10/30 01:05:37;;;;;;;0.10;0.10;;;16.60;81.30;;;;;;5018970;28;20028;-77
2022/10/30 01:08:03;;;;;;;0.10;0.10;;;16.60;81.40;;;;;;5053736;28;20033;-76
2022/10/30 01:10:29;;;;;;;0.10;0.10;;;16.60;81.40;;;;;;5035894;28;20027;-77
2022/10/30 01:12:57;;;;;;;7.47;2.92;;;16.50;81.60;;;;;;5035767;28;20021;-77
2022/10/30 01:15:29;;;;;;;1.58;1.48;;;16.50;81.50;;;;;;5035739;28;20423;-77
2022/10/30 01:18:06;;;;;;;0.30;0.30;;;16.60;82.00;;;;;;5053626;28;20032;-77
2022/10/30 01:20:51;;;;;;;0.10;0.10;;;16.70;81.10;;;;;;5053602;28;20036;-77
2022/10/30 01:23:42;;;;;;;0.52;0.52;;;16.70;80.80;;;;;;5035847;28;20396;-77
2022/10/30 01:26:23;;;;;;;0.63;0.63;;;16.70;80.70;;;;;;5035263;28;20033;-77
2022/10/30 01:29:10;;;;;;;0.20;0.20;;;16.60;81.20;;;;;;5035530;28;20431;-77
2022/10/30 01:31:50;;;;;;;0.10;0.10;;;16.50;81.70;;;;;;5053408;28;20024;-77
2022/10/30 01:34:38;;;;;;;0.03;0.03;;;16.40;82.10;;;;;;5053231;28;20045;-77
2022/10/30 01:37:14;;;;;;;4.28;0.80;;;16.40;82.30;;;;;;5035304;28;20037;-77
2022/10/30 01:39:40;;;;;;;0.13;0.13;;;16.20;82.70;;;;;;5053225;28;20135;-77
2022/10/30 01:42:29;;;;;;;0.20;0.20;;;16.20;82.90;;;;;;5035575;28;20040;-77
2022/10/30 01:44:56;;;;;;;0.10;0.10;;;16.10;83.10;;;;;;5052581;28;20036;-77
2022/10/30 01:47:36;;;;;;;1.25;0.88;;;16.20;82.80;;;;;;5035123;28;20562;-77
2022/10/30 01:50:06;;;;;;;0.10;0.10;;;16.20;82.30;;;;;;5018729;28;20029;-77
2022/10/30 01:52:47;;;;;;;0.30;0.30;;;16.20;82.20;;;;;;5053007;28;20078;-77
2022/10/30 01:55:28;;;;;;;1.73;0.40;;;16.20;82.50;;;;;;5034559;28;20071;-77
2022/10/30 01:58:01;;;;;;;1.07;1.03;;;16.20;82.60;;;;;;5018446;28;20550;-77
2022/10/30 02:00:27;;;;;;;0.63;0.55;;;16.20;82.60;;;;;;5034930;28;20045;-76
2022/10/30 02:02:53;;;;;;;0.13;0.13;;;16.10;82.80;;;;;;5052667;28;20047;-77
2022/10/30 02:05:42;;;;;;;0.10;0.10;;;16.10;82.90;;;;;;5034269;28;20382;-77
2022/10/30 02:08:08;;;;;;;0.10;0.10;;;16.00;83.00;;;;;;5052648;28;20092;-77
2022/10/30 02:10:35;;;;;;;2.53;1.17;;;16.10;82.50;;;;;;5052699;28;20438;-76
2022/10/30 02:13:01;;;;;;;4.15;1.75;;;16.20;82.30;;;;;;5018136;28;20558;-78
2022/10/30 02:15:28;;;;;;;0.10;0.10;;;16.30;82.20;;;;;;5034398;28;20387;-77
2022/10/30 02:17:55;;;;;;;0.28;0.28;;;16.20;82.30;;;;;;5052435;28;20392;-77
2022/10/30 02:20:21;;;;;;;0.10;0.10;;;16.20;82.40;;;;;;5018495;28;20071;-76
2022/10/30 02:22:47;;;;;;;0.17;0.17;;;16.20;82.40;;;;;;5034541;28;20029;-77
2022/10/30 02:25:14;;;;;;;0.10;0.10;;;16.40;82.80;;;;;;5034178;28;20036;-77
2022/10/30 02:27:40;;;;;;;0.10;0.10;;;16.30;81.80;;;;;;5034488;28;20075;-77
2022/10/30 02:30:07;;;;;;;0.60;0.60;;;16.40;81.80;;;;;;5017919;28;20025;-77
2022/10/30 02:32:33;;;;;;;0.10;0.10;;;16.40;81.70;;;;;;5034493;28;20507;-77
2022/10/30 02:34:58;;;;;;;0.57;0.57;;;16.40;81.40;;;;;;5051947;28;20465;-77
2022/10/30 02:37:24;;;;;;;0.50;0.50;;;16.40;81.50;;;;;;5017874;28;20017;-76
2022/10/30 02:39:50;;;;;;;0.10;0.10;;;16.40;81.80;;;;;;5052386;28;20017;-77
2022/10/30 02:42:16;;;;;;;0.10;0.10;;;16.40;81.80;;;;;;5052063;28;20100;-77
2022/10/30 02:44:42;;;;;;;0.10;0.10;;;16.20;81.90;;;;;;5051833;28;20104;-77
2022/10/30 02:47:08;;;;;;;0.10;0.10;;;16.20;82.40;;;;;;5051812;28;20029;-77
2022/10/30 02:49:33;;;;;;;0.10;0.10;;;16.10;82.80;;;;;;5034200;28;20100;-76
2022/10/30 02:51:59;;;;;;;0.25;0.25;;;16.20;82.30;;;;;;5051947;28;20473;-76
2022/10/30 02:54:25;;;;;;;0.15;0.15;;;16.30;82.20;;;;;;5034177;28;20028;-76
2022/10/30 02:56:51;;;;;;;0.10;0.10;;;16.20;81.70;;;;;;5017353;28;20031;-77
2022/10/30 02:59:17;;;;;;;0.05;0.05;;;16.20;81.70;;;;;;5051818;28;20025;-77
2022/10/30 03:01:42;;;;;;;0.10;0.10;;;16.30;81.80;;;;;;5051767;28;20082;-77
2022/10/30 03:04:08;;;;;;;0.10;0.10;;;16.30;81.60;;;;;;5051723;28;20044;-77
2022/10/30 03:06:35;;;;;;;0.10;0.10;;;16.30;81.40;;;;;;5033573;28;20116;-76
2022/10/30 03:09:00;;;;;;;4.53;3.10;;;16.20;82.50;;;;;;5033962;28;20067;-78
2022/10/30 03:11:26;;;;;;;0.38;0.28;;;16.20;82.00;;;;;;5051802;28;20048;-77
2022/10/30 03:13:53;;;;;;;1.98;1.48;;;16.20;82.40;;;;;;5033752;28;20044;-77
2022/10/30 03:16:21;;;;;;;0.10;0.10;;;16.10;82.80;;;;;;5033801;28;20034;-78
2022/10/30 03:18:47;;;;;;;1.70;1.60;;;16.10;82.70;;;;;;5035253;28;20028;-77
2022/10/30 03:21:16;;;;;;;0.73;0.73;;;15.90;82.80;;;;;;5037945;28;20037;-77
2022/10/30 03:23:42;;;;;;;0.28;0.28;;;16.00;82.90;;;;;;5037883;28;20032;-77
2022/10/30 03:26:08;;;;;;;0.13;0.13;;;15.90;82.90;;;;;;5055300;28;20493;-77
2022/10/30 03:28:34;;;;;;;0.10;0.10;;;16.00;83.00;;;;;;5055738;28;20104;-77
2022/10/30 03:31:11;;;;;;;0.00;0.00;;;16.10;83.10;;;;;;5055656;28;20021;-77
2022/10/30 03:33:38;;;;;;;0.10;0.10;;;16.20;83.10;;;;;;5055585;28;20028;-77
2022/10/30 03:36:05;;;;;;;0.30;0.30;;;16.30;84.80;;;;;;5055405;28;20488;-77
2022/10/30 03:38:31;;;;;;;0.63;0.63;;;16.30;85.60;;;;;;5055330;28;20021;-77
2022/10/30 03:40:57;;;;;;;0.35;0.35;;;16.30;86.00;;;;;;5055455;28;20496;-77
2022/10/30 03:43:23;;;;;;;0.10;0.10;;;15.80;86.30;;;;;;5055344;28;20055;-77
2022/10/30 03:45:52;;;;;;;0.20;0.20;;;15.60;87.80;;;;;;5037143;28;20427;-78
2022/10/30 03:48:19;;;;;;;0.10;0.10;;;15.20;88.70;;;;;;5055158;28;20036;-77
2022/10/30 03:50:45;;;;;;;0.10;0.10;;;14.90;90.00;;;;;;5055332;28;20071;-77
2022/10/30 03:53:12;;;;;;;0.10;0.10;;;14.80;90.20;;;;;;5037226;28;20044;-77
2022/10/30 03:55:38;;;;;;;0.10;0.10;;;15.00;90.00;;;;;;5037129;28;20055;-77
2022/10/30 03:58:05;;;;;;;0.10;0.10;;;15.20;89.30;;;;;;5020808;28;20398;-77
2022/10/30 04:00:31;;;;;;;0.20;0.20;;;15.40;88.50;;;;;;5037386;28;20528;-77
2022/10/30 04:02:57;;;;;;;0.10;0.10;;;15.30;87.70;;;;;;5054948;28;20025;-77
2022/10/30 04:05:23;;;;;;;0.10;0.10;;;15.10;87.90;;;;;;5054447;28;20432;-77
2022/10/30 04:07:55;;;;;;;0.10;0.10;;;15.10;88.70;;;;;;5054998;28;20036;-76
2022/10/30 04:10:21;;;;;;;;;;;15.20;88.60;;;;;;5055444;28;20409;-77
2022/10/30 04:12:47;;;;;;;0.30;0.30;;;15.30;88.50;;;;;;5037010;28;19904;-76
2022/10/30 04:15:12;;;;;;;0.50;0.50;;;15.30;88.00;;;;;;5054587;28;20093;-77
2022/10/30 04:17:38;;;;;;;0.10;0.10;;;15.20;88.80;;;;;;5036738;28;20017;-77
2022/10/30 04:20:04;;;;;;;0.10;0.10;;;15.00;90.00;;;;;;5020372;28;20044;-77
2022/10/30 04:22:30;;;;;;;0.20;0.20;;;14.80;90.10;;;;;;5054893;28;20025;-76
2022/10/30 04:24:56;;;;;;;0.45;0.45;;;14.70;90.50;;;;;;5054387;28;20021;-77
2022/10/30 04:27:22;;;;;;;0.20;0.20;;;14.60;90.70;;;;;;5054607;28;20029;-77
2022/10/30 04:29:47;;;;;;;0.20;0.20;;;14.30;91.40;;;;;;5035482;28;20029;-78
2022/10/30 04:32:14;;;;;;;0.17;0.17;;;14.10;92.00;;;;;;5053691;28;20481;-76
2022/10/30 04:34:39;;;;;;;0.28;0.28;;;14.00;92.60;;;;;;5054201;28;20052;-77
2022/10/30 04:37:06;;;;;;;0.10;0.10;;;13.70;92.80;;;;;;5036419;28;20059;-77
2022/10/30 04:39:32;;;;;;;2.30;2.13;;;13.70;93.20;;;;;;5054224;28;20025;-76
2022/10/30 04:41:57;;;;;;;0.15;0.15;;;13.80;93.00;;;;;;5036419;28;20021;-76
2022/10/30 04:44:23;;;;;;;7.10;2.83;;;13.90;93.00;;;;;;5054146;28;20151;-77
2022/10/30 04:46:49;;;;;;;0.10;0.10;;;13.90;92.80;;;;;;5035893;28;20065;-77
2022/10/30 04:49:14;;;;;;;0.93;0.93;;;13.90;93.00;;;;;;5034188;28;20539;-76
2022/10/30 04:51:40;;;;;;;0.40;0.40;;;14.00;92.70;;;;;;5016608;28;20536;-78
2022/10/30 04:54:06;;;;;;;1.10;1.10;;;14.10;92.40;;;;;;5034064;28;20045;-77
2022/10/30 04:56:32;;;;;;;0.38;0.38;;;14.00;92.50;;;;;;5046139;28;20036;-77
2022/10/30 04:58:58;;;;;;;0.20;0.20;;;14.00;92.50;;;;;;5035934;28;20091;-76
2022/10/30 05:01:24;;;;;;;0.20;0.20;;;14.00;92.60;;;;;;5053767;28;20114;-77
2022/10/30 05:03:49;;;;;;;0.10;0.10;;;14.10;93.00;;;;;;5052669;28;20106;-77
2022/10/30 05:06:22;;;;;;;0.20;0.20;;;14.10;92.70;;;;;;5057643;28;20413;-77
2022/10/30 05:08:49;;;;;;;0.20;0.20;;;14.20;92.90;;;;;;5073077;28;20074;-77
2022/10/30 05:11:15;;;;;;;0.20;0.20;;;14.10;92.20;;;;;;5069423;28;20049;-77
2022/10/30 05:13:41;;;;;;;0.20;0.20;;;14.20;92.20;;;;;;5053772;28;20388;-77
2022/10/30 05:16:07;;;;;;;0.20;0.20;;;14.10;92.40;;;;;;5035400;28;20036;-77
2022/10/30 05:18:33;;;;;;;0.65;0.50;;;14.30;92.40;;;;;;5052555;28;20024;-76
2022/10/30 05:20:59;;;;;;;0.10;0.10;;;14.30;92.20;;;;;;5049172;28;20035;-77
2022/10/30 05:23:24;;;;;;;0.20;0.20;;;14.20;92.60;;;;;;5053542;28;20067;-77
2022/10/30 05:25:50;;;;;;;0.47;0.43;;;14.20;92.40;;;;;;5034963;28;20409;-76
2022/10/30 05:28:16;;;;;;;0.30;0.30;;;14.10;92.50;;;;;;5053225;28;20021;-76
2022/10/30 05:30:43;;;;;;;0.13;0.13;;;13.90;92.60;;;;;;5035390;28;20021;-77
2022/10/30 05:33:10;;;;;;;0.20;0.20;;;13.70;92.90;;;;;;5053473;28;20025;-77
2022/10/30 05:35:37;;;;;;;0.45;0.45;;;13.80;93.10;;;;;;5017829;28;20496;-77
2022/10/30 05:38:05;;;;;;;0.30;0.30;;;13.90;93.00;;;;;;5034834;28;20028;-77
2022/10/30 05:40:31;;;;;;;0.10;0.10;;;14.20;92.60;;;;;;5018738;28;20033;-76
2022/10/30 05:42:57;;;;;;;0.20;0.20;;;14.50;92.40;;;;;;5052832;28;20028;-77
2022/10/30 05:45:23;;;;;;;0.10;0.10;;;14.50;92.00;;;;;;5030863;28;20060;-76
2022/10/30 05:48:00;;;;;;;0.15;0.15;;;14.60;91.80;;;;;;5052173;28;20513;-77
2022/10/30 05:50:27;;;;;;;0.15;0.15;;;14.20;92.20;;;;;;5033633;28;20031;-76
2022/10/30 05:53:01;;;;;;;0.25;0.25;;;14.00;92.70;;;;;;5034766;28;20017;-77
2022/10/30 05:55:28;;;;;;;0.10;0.10;;;14.00;92.70;;;;;;5018154;28;20025;-77
2022/10/30 05:57:58;;;;;;;0.35;0.35;;;13.70;93.00;;;;;;5018327;28;20488;-77
2022/10/30 06:00:26;;;;;;;4.57;1.10;;;13.70;93.40;;;;;;5018357;28;20028;-77
2022/10/30 06:02:51;;;;;;;0.73;0.73;;;13.70;93.40;;;;;;5034947;28;20112;-78
2022/10/30 06:05:17;;;;;;;0.52;0.52;;;13.80;93.30;;;;;;5052370;28;20056;-77
2022/10/30 06:07:43;;;;;;;0.20;0.20;;;14.00;93.30;;;;;;5034830;28;20047;-77
2022/10/30 06:10:08;;;;;;;0.20;0.20;;;14.00;92.90;;;;;;5034979;28;20021;-76
2022/10/30 06:12:34;;;;;;;0.10;0.10;;;14.00;93.40;;;;;;5052586;28;20059;-77
2022/10/30 06:15:00;;;;;;;0.20;0.20;;;13.80;93.30;;;;;;5052296;28;20075;-77
2022/10/30 06:17:28;;;;;;;0.20;0.20;;;13.80;93.80;;;;;;5034669;28;20021;-77
2022/10/30 06:19:54;;;;;;;0.40;0.40;;;13.90;93.40;;;;;;5054331;28;20025;-78
2022/10/30 06:22:20;;;;;;;0.20;0.20;;;13.80;93.60;;;;;;5060536;28;20082;-77
2022/10/30 06:24:45;;;;;;;0.17;0.17;;;13.70;93.90;;;;;;5048570;28;20425;-78
2022/10/30 06:27:12;;;;;;;0.20;0.20;;;13.80;94.00;;;;;;5072135;28;20539;-76
2022/10/30 06:29:37;;;;;;;0.20;0.20;;;13.80;93.80;;;;;;5035342;28;20028;-76
2022/10/30 06:32:03;;;;;;;0.10;0.10;;;13.80;93.70;;;;;;5052025;28;20397;-77
2022/10/30 06:34:29;;;;;;;0.20;0.20;;;13.80;94.00;;;;;;5017700;28;20421;-77
2022/10/30 06:36:55;;;;;;;0.20;0.20;;;13.80;93.90;;;;;;5034115;28;20497;-78
2022/10/30 06:39:20;;;;;;;0.10;0.10;;;13.80;93.70;;;;;;5052071;28;20021;-78
2022/10/30 06:41:46;;;;;;;0.20;0.20;;;13.80;93.90;;;;;;5034303;28;20037;-77
2022/10/30 06:44:13;;;;;;;0.10;0.10;;;13.80;94.20;;;;;;5017648;28;20439;-77
2022/10/30 06:46:38;;;;;;;0.20;0.20;;;13.80;94.00;;;;;;5051781;28;20025;-77
2022/10/30 06:49:04;;;;;;;0.10;0.10;;;13.90;94.20;;;;;;5034317;28;20075;-77
2022/10/30 06:51:31;;;;;;;0.10;0.10;;;13.90;93.90;;;;;;5034607;28;20624;-77
2022/10/30 06:53:56;;;;;;;0.20;0.20;;;13.90;94.20;;;;;;5051596;28;20021;-77
2022/10/30 06:56:22;;;;;;;0.10;0.10;;;14.00;94.20;;;;;;5052056;28;20079;-77
2022/10/30 06:58:48;;;;;;;0.10;0.10;;;14.10;94.60;;;;;;5052065;28;20366;-77
2022/10/30 07:01:13;;;;;;;0.10;0.10;;;14.20;94.70;;;;;;5051553;28;20025;-77
2022/10/30 07:03:39;;;;;;;0.10;0.10;;;14.20;94.70;;;;;;5051378;28;20040;-76
2022/10/30 07:06:05;;;;;;;0.10;0.10;;;14.20;95.10;;;;;;5033454;28;20075;-77
2022/10/30 07:08:31;;;;;;;0.10;0.10;;;14.30;95.20;;;;;;5017450;28;20028;-77
2022/10/30 07:10:57;;;;;;;0.20;0.20;;;14.30;95.40;;;;;;5033898;28;20025;-77
2022/10/30 07:13:23;;;;;;;0.10;0.10;;;14.50;95.40;;;;;;5033846;28;20114;-78
2022/10/30 07:15:49;;;;;;;0.20;0.20;;;14.70;95.20;;;;;;5033643;28;20102;-78
2022/10/30 07:18:14;;;;;;;0.10;0.10;;;14.80;95.60;;;;;;5034021;28;20032;-77
2022/10/30 07:20:40;;;;;;;0.25;0.25;;;14.70;96.00;;;;;;5033734;28;20031;-77
2022/10/30 07:23:06;;;;;;;0.20;0.20;;;14.70;96.00;;;;;;5051706;28;20025;-77
2022/10/30 07:25:31;;;;;;;0.10;0.10;;;14.80;96.30;;;;;;5017049;28;20131;-78
2022/10/30 07:27:57;;;;;;;0.10;0.10;;;14.90;96.70;;;;;;5017193;28;20389;-77
2022/10/30 07:30:25;;;;;;;0.20;0.20;;;14.90;96.40;;;;;;5017345;28;20158;-76
2022/10/30 07:33:02;;;;;;;0.10;0.10;;;15.00;96.40;;;;;;5045348;28;20025;-77
2022/10/30 07:35:29;;;;;;;0.15;0.15;;;15.10;96.10;;;;;;5031412;28;20030;-77
2022/10/30 07:37:55;;;;;;;0.10;0.10;;;15.20;95.80;;;;;;5014159;28;20033;-78
2022/10/30 07:40:21;;;;;;;0.38;0.30;;;15.20;95.60;;;;;;4997791;28;20032;-77
2022/10/30 07:42:47;;;;;;;0.10;0.10;;;15.20;95.60;;;;;;5031696;28;20112;-77
2022/10/30 07:45:13;;;;;;;0.10;0.10;;;15.30;95.70;;;;;;5030967;28;20072;-77
2022/10/30 07:47:40;;;;;;;0.10;0.10;;;15.30;94.90;;;;;;5011986;28;20136;-77
2022/10/30 07:50:06;;;;;;;0.10;0.10;;;15.50;94.70;;;;;;5013526;28;20052;-77
2022/10/30 07:52:32;;;;;;;0.10;0.10;;;15.60;94.90;;;;;;5031782;28;20056;-77
2022/10/30 07:54:58;;;;;;;0.13;0.13;;;15.70;95.20;;;;;;5029721;28;20435;-77
2022/10/30 07:57:24;;;;;;;0.10;0.10;;;15.70;95.20;;;;;;5031151;28;20046;-77
2022/10/30 07:59:49;;;;;;;0.10;0.10;;;15.90;95.00;;;;;;5013707;28;20040;-77
2022/10/30 08:02:15;;;;;;;0.13;0.13;;;16.00;94.70;;;;;;5013751;28;20022;-77
2022/10/30 08:04:41;;;;;;;0.20;0.20;;;16.10;95.20;;;;;;5014747;28;20064;-77
2022/10/30 08:07:06;;;;;;;0.10;0.10;;;16.30;95.10;;;;;;5015382;28;20029;-77
2022/10/30 08:09:32;;;;;;;0.10;0.10;;;16.40;94.80;;;;;;5033326;28;20022;-77
2022/10/30 08:11:58;;;;;;;0.10;0.10;;;16.60;93.90;;;;;;5033230;28;20544;-77
2022/10/30 08:14:24;;;;;;;0.10;0.10;;;16.80;93.20;;;;;;5033220;28;20079;-77
2022/10/30 08:16:50;;;;;;;0.63;0.63;;;16.90;91.50;;;;;;5015048;28;20030;-77
2022/10/30 08:19:16;;;;;;;0.00;0.00;;;17.20;90.90;;;;;;5033234;28;20487;-77
2022/10/30 08:21:42;;;;;;;0.10;0.10;;;17.30;90.60;;;;;;5033864;28;20100;-77
2022/10/30 08:24:08;;;;;;;0.10;0.10;;;17.40;90.50;;;;;;5034870;28;20025;-77
2022/10/30 08:26:34;;;;;;;0.10;0.10;;;17.50;90.60;;;;;;5034182;28;20119;-77
2022/10/30 08:29:00;;;;;;;0.22;0.20;;;17.70;90.00;;;;;;5034606;28;20025;-77
2022/10/30 08:31:26;;;;;;;0.15;0.15;;;17.80;89.20;;;;;;5034709;28;20397;-77
2022/10/30 08:33:52;;;;;;;0.13;0.13;;;18.00;89.20;;;;;;5034684;28;20021;-77
2022/10/30 08:36:17;;;;;;;0.10;0.10;;;18.20;88.80;;;;;;5034328;28;20034;-78
2022/10/30 08:38:43;;;;;;;0.00;0.00;;;18.30;89.60;;;;;;5016669;28;20064;-78
2022/10/30 08:41:09;;;;;;;0.10;0.10;;;18.50;89.90;;;;;;5016737;28;20456;-77
2022/10/30 08:43:34;;;;;;;0.10;0.10;;;18.50;87.60;;;;;;5016705;28;20112;-77
2022/10/30 08:46:01;;;;;;;0.08;0.08;;;18.60;89.00;;;;;;5000041;28;20629;-77
2022/10/30 08:48:26;;;;;;;0.10;0.10;;;18.70;89.40;;;;;;5016479;28;20034;-77
2022/10/30 08:50:57;;;;;;;0.10;0.10;;;18.80;89.20;;;;;;5016531;28;20063;-77
2022/10/30 08:53:23;;;;;;;0.00;0.00;;;19.00;87.50;;;;;;5016621;28;20025;-77
2022/10/30 08:55:50;;;;;;;0.00;0.00;;;19.00;86.80;;;;;;5015975;28;20025;-77
2022/10/30 08:58:16;;;;;;;0.10;0.10;;;19.10;87.50;;;;;;5000199;28;20401;-77
2022/10/30 09:00:42;;;;;;;0.10;0.10;;;19.20;87.70;;;;;;4999992;28;20022;-77
2022/10/30 09:03:09;;;;;;;0.10;0.10;;;19.20;85.30;;;;;;5034051;28;20029;-77
2022/10/30 09:05:36;;;;;;;0.08;0.08;;;19.40;85.30;;;;;;5015777;28;20048;-77
2022/10/30 09:08:02;;;;;;;0.10;0.10;;;19.40;85.80;;;;;;5016500;28;20496;-77
2022/10/30 09:10:28;;;;;;;0.10;0.10;;;19.50;85.50;;;;;;5016442;28;20045;-77
2022/10/30 09:12:58;;;;;;;0.10;0.10;;;19.70;85.60;;;;;;5016189;28;20370;-77
2022/10/30 09:15:25;;;;;;;0.10;0.10;;;19.90;85.60;;;;;;5033620;28;20030;-78
2022/10/30 09:18:02;;;;;;;0.10;0.10;;;20.10;86.20;;;;;;5033284;28;20108;-77
2022/10/30 09:20:28;;;;;;;0.10;0.10;;;20.30;86.60;;;;;;5016082;28;20385;-77
2022/10/30 09:22:54;;;;;;;0.03;0.03;;;20.40;87.00;;;;;;5016084;28;20021;-77
2022/10/30 09:25:20;;;;;;;1.48;0.52;;;20.60;86.80;;;;;;5033294;28;20091;-78
2022/10/30 09:27:46;;;;;;;2.05;1.95;;;21.00;87.40;;;;;;4999376;28;20079;-77
2022/10/30 09:30:13;;;;;;;0.00;0.00;;;21.40;87.60;;;;;;5033562;28;20022;-77
2022/10/30 09:32:39;;;;;;;0.10;0.10;;;22.00;86.40;;;;;;5033531;28;20028;-77
2022/10/30 09:35:05;;;;;;;0.03;0.03;;;22.40;85.30;;;;;;5033381;28;20377;-77
2022/10/30 09:37:38;;;;;;;0.00;0.00;;;22.80;81.70;;;;;;5033437;28;20029;-77
2022/10/30 09:40:05;;;;;;;4.95;2.08;;;23.10;79.50;;;;;;5015506;28;20197;-78
2022/10/30 09:42:45;;;;;;;0.00;0.00;;;23.60;75.20;;;;;;5033445;28;20028;-77
2022/10/30 09:45:45;;;;;;;0.00;0.00;;;24.10;73.40;;;;;;5033328;28;20032;-77
2022/10/30 09:48:24;;;;;;;3.22;3.03;;;24.40;69.40;;;;;;5015494;28;20029;-77
2022/10/30 09:51:12;;;;;;;0.00;0.00;;;24.80;69.20;;;;;;5015853;28;20052;-78
2022/10/30 09:53:51;;;;;;;0.00;0.00;;;25.30;67.60;;;;;;5015522;28;20022;-78
2022/10/30 09:56:42;;;;;;;0.00;0.00;;;25.80;66.40;;;;;;5033392;28;20063;-77
2022/10/30 09:59:43;;;;;;;0.00;0.00;;;26.20;65.70;;;;;;5033617;28;20383;-77
2022/10/30 10:02:16;;;;;;;;;;;26.70;64.00;;;;;;5016282;28;20188;-76
2022/10/30 10:04:43;;;;;;;0.35;0.35;;;26.90;64.10;;;;;;5016273;28;19916;-76
2022/10/30 10:07:31;;;;;;;0.00;0.00;;;26.90;63.70;;;;;;5032762;28;20044;-76
2022/10/30 10:10:24;;;;;;;0.17;0.17;;;27.10;62.50;;;;;;5015034;28;20109;-76
2022/10/30 10:12:52;;;;;;;0.00;0.00;;;27.50;60.10;;;;;;5014296;28;20025;-76
2022/10/30 10:15:28;;;;;;;2.00;0.85;;;27.50;59.10;;;;;;5032448;28;20485;-76
2022/10/30 10:17:55;;;;;;;0.52;0.30;;;27.60;58.50;;;;;;5032962;28;20538;-77
2022/10/30 10:20:26;;;;;;;0.00;0.00;;;27.90;58.10;;;;;;5000234;28;20088;-78
2022/10/30 10:22:52;;;;;;;0.00;0.00;;;28.10;57.90;;;;;;5016853;28;20041;-78
2022/10/30 10:25:19;;;;;;;0.00;0.00;;;28.40;57.20;;;;;;5000669;28;20022;-76
2022/10/30 10:28:13;;;;;;;3.25;0.52;;;28.80;56.50;;;;;;5032213;28;20596;-76
2022/10/30 10:31:17;;;;;;;0.00;0.00;;;29.10;55.80;;;;;;5031518;28;20036;-79
2022/10/30 10:33:53;;;;;;;0.00;0.00;;;29.20;53.40;;;;;;4973702;28;20243;-76
2022/10/30 10:36:27;;;;;;;0.65;0.65;;;29.50;53.40;;;;;;4973090;28;20225;-76
2022/10/30 10:39:32;;;;;;;0.00;0.00;;;29.60;52.60;;;;;;5014902;28;20045;-76
2022/10/30 10:42:25;;;;;;;0.00;0.00;;;30.00;51.70;;;;;;5030986;28;20030;-76
2022/10/30 10:45:19;;;;;;;0.00;0.00;;;30.00;51.10;;;;;;5014300;28;20037;-76
2022/10/30 10:48:13;;;;;;;0.00;0.00;;;30.20;50.40;;;;;;5014275;28;20420;-76
2022/10/30 10:50:59;;;;;;;0.00;0.00;;;30.30;50.30;;;;;;5014310;28;20022;-76
2022/10/30 10:53:47;;;;;;;0.00;0.00;;;30.20;49.70;;;;;;5013948;28;20668;-76
2022/10/30 10:56:13;;;;;;;0.00;0.00;;;30.90;49.90;;;;;;5014074;28;20478;-76
2022/10/30 10:58:58;;;;;;;3.10;1.67;;;31.10;48.60;;;;;;5030904;28;20032;-76
2022/10/30 11:01:38;;;;;;;0.00;0.00;;;31.50;48.50;;;;;;5031999;28;20029;-76
2022/10/30 11:04:19;;;;;;;0.40;0.40;;;31.60;47.40;;;;;;5014123;28;20038;-76
2022/10/30 11:06:50;;;;;;;0.08;0.08;;;32.10;46.00;;;;;;5013860;28;20030;-77
2022/10/30 11:09:21;;;;;;;0.00;0.00;;;32.10;46.30;;;;;;5014104;28;20048;-76
2022/10/30 11:11:49;;;;;;;0.00;0.00;;;32.10;46.30;;;;;;5014120;28;20013;-76
2022/10/30 11:14:18;;;;;;;0.00;0.00;;;32.10;45.00;;;;;;5014293;28;20542;-76
2022/10/30 11:16:59;;;;;;;0.00;0.00;;;32.50;44.30;;;;;;5013806;28;20082;-76
2022/10/30 11:19:25;;;;;;;0.00;0.00;;;32.50;44.60;;;;;;5031580;28;20029;-76
2022/10/30 11:21:54;;;;;;;0.00;0.00;;;32.10;41.70;;;;;;5031300;28;20030;-76
2022/10/30 11:24:28;;;;;;;0.00;0.00;;;32.10;41.60;;;;;;5013995;28;20034;-76
2022/10/30 11:26:56;;;;;;;3.33;2.20;;;32.50;41.30;;;;;;5031404;28;20029;-76
2022/10/30 11:29:25;;;;;;;0.00;0.00;;;32.70;41.30;;;;;;5013698;28;20018;-76
2022/10/30 11:32:03;;;;;;;0.10;0.10;;;33.10;40.80;;;;;;5013564;28;20037;-76
2022/10/30 11:34:36;;;;;;;0.52;0.32;;;33.10;40.70;;;;;;5013642;28;20025;-76
2022/10/30 11:37:04;;;;;;;0.00;0.00;;;33.10;40.90;;;;;;5013601;28;20022;-76
2022/10/30 11:39:33;;;;;;;0.15;0.15;;;32.80;41.00;;;;;;5014405;28;20175;-76
2022/10/30 11:42:05;;;;;;;0.00;0.00;;;32.70;40.30;;;;;;5035397;28;20033;-76
2022/10/30 11:44:37;;;;;;;24.85;1.65;;;32.30;40.80;;;;;;5035084;28;20079;-76
2022/10/30 11:47:05;;;;;;;0.00;0.00;;;31.90;40.90;;;;;;5016895;28;20033;-76
2022/10/30 11:49:45;;;;;;;0.03;0.03;;;31.80;41.10;;;;;;5017631;28;20388;-76
2022/10/30 11:52:14;;;;;;;0.00;0.00;;;32.00;40.90;;;;;;5017346;28;20116;-76
2022/10/30 11:54:43;;;;;;;0.00;0.00;;;32.40;40.70;;;;;;5017245;28;20021;-76
2022/10/30 11:57:27;;;;;;;0.00;0.00;;;32.20;39.90;;;;;;5017145;28;20029;-76
2022/10/30 11:59:55;;;;;;;0.10;0.10;;;32.60;39.00;;;;;;5017344;28;20038;-76
2022/10/30 12:02:28;;;;;;;0.00;0.00;;;32.70;38.80;;;;;;5017160;28;20032;-76
2022/10/30 12:04:59;;;;;;;0.38;0.28;;;32.80;39.70;;;;;;5034760;28;20025;-76
2022/10/30 12:07:28;;;;;;;0.30;0.30;;;32.50;40.00;;;;;;5016855;28;20080;-76
2022/10/30 12:09:54;;;;;;;0.00;0.00;;;32.10;41.90;;;;;;5034845;28;20418;-76
2022/10/30 12:12:26;;;;;;;1.10;0.32;;;32.10;42.40;;;;;;5034668;28;20108;-76
2022/10/30 12:14:52;;;;;;;0.00;0.00;;;32.00;42.30;;;;;;5034825;28;20397;-76
2022/10/30 12:17:19;;;;;;;0.55;0.25;;;32.30;40.90;;;;;;5017026;28;20030;-76
2022/10/30 12:19:56;;;;;;;0.00;0.00;;;32.00;41.50;;;;;;5016965;28;20367;-76
2022/10/30 12:22:32;;;;;;;0.63;0.57;;;32.30;40.90;;;;;;5034588;28;20481;-76
2022/10/30 12:25:06;;;;;;;0.00;0.00;;;32.00;40.90;;;;;;5034544;28;20033;-76
2022/10/30 12:27:37;;;;;;;0.00;0.00;;;32.20;41.20;;;;;;5000403;28;20390;-76
2022/10/30 12:30:10;;;;;;;;;;;32.50;39.80;;;;;;5017271;28;20044;-76
2022/10/30 12:33:02;;;;;;;0.00;0.00;;;32.80;39.40;;;;;;5000254;28;19905;-76
2022/10/30 12:35:43;;;;;;;0.20;0.20;;;33.00;38.80;;;;;;5011191;28;20108;-76
2022/10/30 12:38:23;;;;;;;0.00;0.00;;;32.80;39.30;;;;;;5034240;28;20082;-76
2022/10/30 12:40:58;;;;;;;0.00;0.00;;;32.70;39.00;;;;;;5034046;28;20053;-76
2022/10/30 12:43:30;;;;;;;0.00;0.00;;;32.70;39.40;;;;;;5016497;28;20029;-76
2022/10/30 12:46:26;;;;;;;0.00;0.00;;;32.90;38.70;;;;;;5016151;28;20033;-76
2022/10/30 12:49:12;;;;;;;0.00;0.00;;;32.80;38.20;;;;;;5034151;28;20033;-76
2022/10/30 12:51:55;;;;;;;0.00;0.00;;;32.80;38.10;;;;;;5015426;28;20022;-76
2022/10/30 12:54:36;;;;;;;0.00;0.00;;;33.00;38.50;;;;;;5016026;28;20022;-76
2022/10/30 12:57:11;;;;;;;;;;;32.80;39.50;;;;;;5034114;28;20398;-76
2022/10/30 13:00:00;;;;;;;0.22;0.22;;;32.80;45.30;;;;;;5032670;28;19920;-76
2022/10/30 13:02:37;;;;;;;0.00;0.00;;;32.50;47.10;;;;;;5016188;28;20061;-76